Wetterdaten: Dienstag, 13.07.2010
Datum Zeit Temp. A. Feuchte A. Luftdruck Regen Wind Richtung Richtung Sonnenschein UV Solar Windben
13.07.2010 00:00 23,3 C 61 % 1010,3 hPa 0,0 mm 0,0 km/h (0 Bft) W 270 0 min 0 UV-I 0 W/m 4,8 km/h (1 Bft)
13.07.2010 00:10 23,3 C 61 % 1010,4 hPa 0,0 mm 1,6 km/h (1 Bft) W-SW 247 0 min 0 UV-I 0 W/m 8,0 km/h (2 Bft)
13.07.2010 00:20 23,1 C 61 % 1010,4 hPa 0,0 mm 3,2 km/h (1 Bft) W-SW 247 0 min 0 UV-I 0 W/m 8,0 km/h (2 Bft)
13.07.2010 00:30 23,0 C 61 % 1010,3 hPa 0,0 mm 3,2 km/h (1 Bft) W 270 0 min 0 UV-I 0 W/m 11,3 km/h (2 Bft)
13.07.2010 00:40 22,9 C 62 % 1010,2 hPa 0,0 mm 3,2 km/h (1 Bft) W-SW 247 0 min 0 UV-I 0 W/m 14,5 km/h (3 Bft)
13.07.2010 00:50 22,8 C 63 % 1010,3 hPa 0,0 mm 1,6 km/h (1 Bft) W 270 0 min 0 UV-I 0 W/m 8,0 km/h (2 Bft)
13.07.2010 01:00 22,7 C 64 % 1010,6 hPa 0,0 mm 1,6 km/h (1 Bft) W 270 0 min 0 UV-I 0 W/m 9,7 km/h (2 Bft)
13.07.2010 01:10 22,7 C 65 % 1010,8 hPa 0,0 mm 1,6 km/h (1 Bft) W 270 0 min 0 UV-I 0 W/m 8,0 km/h (2 Bft)
13.07.2010 01:20 22,7 C 65 % 1010,7 hPa 0,0 mm 4,8 km/h (1 Bft) W 270 0 min 0 UV-I 0 W/m 11,3 km/h (2 Bft)
13.07.2010 01:30 22,5 C 66 % 1010,7 hPa 0,0 mm 4,8 km/h (1 Bft) W 270 0 min 0 UV-I 0 W/m 16,1 km/h (3 Bft)
13.07.2010 01:40 22,2 C 69 % 1010,7 hPa 0,0 mm 3,2 km/h (1 Bft) W 270 0 min 0 UV-I 0 W/m 11,3 km/h (2 Bft)
13.07.2010 01:50 21,8 C 72 % 1010,7 hPa 0,0 mm 1,6 km/h (1 Bft) W 270 0 min 0 UV-I 0 W/m 8,0 km/h (2 Bft)
13.07.2010 02:00 21,7 C 73 % 1010,7 hPa 0,0 mm 0,0 km/h (0 Bft) W 270 0 min 0 UV-I 0 W/m 8,0 km/h (2 Bft)
13.07.2010 02:10 21,5 C 73 % 1010,9 hPa 0,0 mm 0,0 km/h (0 Bft) W 270 0 min 0 UV-I 0 W/m 3,2 km/h (1 Bft)
13.07.2010 02:20 21,5 C 74 % 1010,8 hPa 0,0 mm 0,0 km/h (0 Bft) W 270 0 min 0 UV-I 0 W/m 1,6 km/h (1 Bft)
13.07.2010 02:30 21,4 C 74 % 1010,9 hPa 0,0 mm 0,0 km/h (0 Bft) W 270 0 min 0 UV-I 0 W/m 1,6 km/h (1 Bft)
13.07.2010 02:40 21,4 C 74 % 1010,9 hPa 0,0 mm 0,0 km/h (0 Bft) W 270 0 min 0 UV-I 0 W/m 1,6 km/h (1 Bft)
13.07.2010 02:50 21,3 C 74 % 1010,9 hPa 0,0 mm 0,0 km/h (0 Bft) N 0 0 min 0 UV-I 0 W/m 0,0 km/h (0 Bft)
13.07.2010 03:00 21,2 C 74 % 1010,8 hPa 0,0 mm 0,0 km/h (0 Bft) W 270 0 min 0 UV-I 0 W/m 1,6 km/h (1 Bft)
13.07.2010 03:10 21,1 C 75 % 1010,7 hPa 0,0 mm 0,0 km/h (0 Bft) W 270 0 min 0 UV-I 0 W/m 1,6 km/h (1 Bft)
13.07.2010 03:20 20,8 C 75 % 1010,7 hPa 0,0 mm 0,0 km/h (0 Bft) W 270 0 min 0 UV-I 0 W/m 1,6 km/h (1 Bft)
13.07.2010 03:30 20,7 C 76 % 1010,7 hPa 0,0 mm 0,0 km/h (0 Bft) W 270 0 min 0 UV-I 0 W/m 1,6 km/h (1 Bft)
13.07.2010 03:40 20,6 C 76 % 1010,6 hPa 0,0 mm 0,0 km/h (0 Bft) W 270 0 min 0 UV-I 0 W/m 1,6 km/h (1 Bft)
13.07.2010 03:50 20,4 C 77 % 1010,5 hPa 0,0 mm 0,0 km/h (0 Bft) W 270 0 min 0 UV-I 0 W/m 1,6 km/h (1 Bft)
13.07.2010 04:00 20,3 C 78 % 1010,4 hPa 0,0 mm 0,0 km/h (0 Bft) W 270 0 min 0 UV-I 0 W/m 1,6 km/h (1 Bft)
13.07.2010 04:10 20,3 C 78 % 1010,4 hPa 0,0 mm 0,0 km/h (0 Bft) W 270 0 min 0 UV-I 0 W/m 1,6 km/h (1 Bft)
13.07.2010 04:20 20,1 C 78 % 1010,4 hPa 0,0 mm 0,0 km/h (0 Bft) N 0 0 min 0 UV-I 0 W/m 0,0 km/h (0 Bft)
13.07.2010 04:30 20,0 C 79 % 1010,4 hPa 0,0 mm 0,0 km/h (0 Bft) W 270 0 min 0 UV-I 0 W/m 1,6 km/h (1 Bft)
13.07.2010 04:40 19,9 C 79 % 1010,3 hPa 0,0 mm 0,0 km/h (0 Bft) W 270 0 min 0 UV-I 0 W/m 4,8 km/h (1 Bft)
13.07.2010 04:50 19,8 C 79 % 1010,3 hPa 0,0 mm 1,6 km/h (1 Bft) W 270 0 min 0 UV-I 0 W/m 6,4 km/h (2 Bft)
13.07.2010 05:00 19,6 C 79 % 1010,3 hPa 0,0 mm 1,6 km/h (1 Bft) W 270 0 min 0 UV-I 0 W/m 4,8 km/h (1 Bft)
13.07.2010 05:10 19,5 C 80 % 1010,2 hPa 0,0 mm 0,0 km/h (0 Bft) W 270 0 min 0 UV-I 0 W/m 3,2 km/h (1 Bft)
13.07.2010 05:20 19,4 C 79 % 1010,2 hPa 0,0 mm 0,0 km/h (0 Bft) W 270 0 min 0 UV-I 0 W/m 4,8 km/h (1 Bft)
13.07.2010 05:30 19,2 C 79 % 1010,2 hPa 0,0 mm 0,0 km/h (0 Bft) W 270 0 min 0 UV-I 0 W/m 4,8 km/h (1 Bft)
13.07.2010 05:40 19,2 C 79 % 1010,1 hPa 0,0 mm 0,0 km/h (0 Bft) W 270 0 min 0 UV-I 9 W/m 1,6 km/h (1 Bft)
13.07.2010 05:50 19,2 C 79 % 1010,0 hPa 0,0 mm 0,0 km/h (0 Bft) W 270 0 min 0 UV-I 14 W/m 3,2 km/h (1 Bft)
13.07.2010 06:00 19,1 C 80 % 1010,3 hPa 0,0 mm 0,0 km/h (0 Bft) W 270 0 min 0 UV-I 19 W/m 8,0 km/h (2 Bft)
13.07.2010 06:10 19,1 C 80 % 1010,2 hPa 0,0 mm 1,6 km/h (1 Bft) W 270 0 min 0 UV-I 21 W/m 9,7 km/h (2 Bft)
13.07.2010 06:20 19,1 C 79 % 1010,3 hPa 0,0 mm 1,6 km/h (1 Bft) W 270 0 min 0 UV-I 25 W/m 9,7 km/h (2 Bft)
13.07.2010 06:30 19,0 C 80 % 1010,5 hPa 0,0 mm 0,0 km/h (0 Bft) W 270 0 min 0 UV-I 26 W/m 6,4 km/h (2 Bft)
13.07.2010 06:40 19,0 C 80 % 1010,6 hPa 0,0 mm 0,0 km/h (0 Bft) W 270 0 min 0 UV-I 77 W/m 4,8 km/h (1 Bft)
13.07.2010 06:50 19,1 C 80 % 1010,7 hPa 0,0 mm 0,0 km/h (0 Bft) W 270 0 min 0 UV-I 91 W/m 4,8 km/h (1 Bft)
13.07.2010 07:00 19,2 C 79 % 1010,6 hPa 0,0 mm 0,0 km/h (0 Bft) W 270 0 min 0 UV-I 83 W/m 3,2 km/h (1 Bft)
13.07.2010 07:10 19,4 C 80 % 1010,6 hPa 0,0 mm 0,0 km/h (0 Bft) W 270 10 min 1 UV-I 179 W/m 1,6 km/h (1 Bft)
13.07.2010 07:20 19,6 C 78 % 1010,5 hPa 0,0 mm 0,0 km/h (0 Bft) W 270 10 min 1 UV-I 188 W/m 3,2 km/h (1 Bft)
13.07.2010 07:30 19,7 C 78 % 1010,6 hPa 0,0 mm 0,0 km/h (0 Bft) W 270 10 min 1 UV-I 276 W/m 4,8 km/h (1 Bft)
13.07.2010 07:40 19,7 C 77 % 1010,7 hPa 0,0 mm 1,6 km/h (1 Bft) W 270 10 min 1 UV-I 221 W/m 6,4 km/h (2 Bft)
13.07.2010 07:50 19,7 C 77 % 1010,7 hPa 0,0 mm 1,6 km/h (1 Bft) W 270 10 min 1 UV-I 283 W/m 4,8 km/h (1 Bft)
13.07.2010 08:00 20,1 C 77 % 1010,9 hPa 0,0 mm 2,0 km/h (1 Bft) W-NW 284 10 min 1 UV-I 307 W/m 6,4 km/h (2 Bft)
13.07.2010 08:10 20,3 C 76 % 1010,7 hPa 0,0 mm 1,6 km/h (1 Bft) W-NW 292 10 min 1 UV-I 357 W/m 6,4 km/h (2 Bft)
13.07.2010 08:20 20,5 C 74 % 1010,7 hPa 0,0 mm 1,6 km/h (1 Bft) W-SW 247 10 min 1 UV-I 373 W/m 6,4 km/h (2 Bft)
13.07.2010 08:30 20,4 C 74 % 1010,7 hPa 0,0 mm 0,0 km/h (0 Bft) W-SW 247 10 min 1 UV-I 239 W/m 3,2 km/h (1 Bft)
13.07.2010 08:40 20,6 C 73 % 1010,7 hPa 0,0 mm 1,6 km/h (1 Bft) W-SW 247 10 min 1 UV-I 323 W/m 6,4 km/h (2 Bft)
13.07.2010 08:50 21,1 C 72 % 1010,7 hPa 0,0 mm 1,6 km/h (1 Bft) W-SW 247 10 min 2 UV-I 418 W/m 9,7 km/h (2 Bft)
13.07.2010 09:00 21,2 C 72 % 1010,8 hPa 0,0 mm 1,6 km/h (1 Bft) W-SW 247 10 min 2 UV-I 425 W/m 8,0 km/h (2 Bft)
13.07.2010 09:10 21,5 C 72 % 1010,8 hPa 0,0 mm 1,6 km/h (1 Bft) W-SW 247 10 min 2 UV-I 469 W/m 4,8 km/h (1 Bft)
13.07.2010 09:20 21,6 C 72 % 1010,9 hPa 0,0 mm 1,6 km/h (1 Bft) W-SW 247 10 min 2 UV-I 422 W/m 6,4 km/h (2 Bft)
13.07.2010 09:30 21,2 C 71 % 1011,1 hPa 0,0 mm 1,6 km/h (1 Bft) W-SW 247 0 min 1 UV-I 155 W/m 9,7 km/h (2 Bft)
13.07.2010 09:40 21,0 C 72 % 1011,1 hPa 0,0 mm 4,8 km/h (1 Bft) W-SW 247 0 min 2 UV-I 188 W/m 12,9 km/h (3 Bft)
13.07.2010 09:50 21,2 C 71 % 1011,0 hPa 0,0 mm 3,2 km/h (1 Bft) W 270 10 min 3 UV-I 531 W/m 11,3 km/h (2 Bft)
13.07.2010 10:00 21,4 C 71 % 1011,0 hPa 0,0 mm 3,2 km/h (1 Bft) W-SW 247 10 min 3 UV-I 387 W/m 9,7 km/h (2 Bft)
13.07.2010 10:10 21,2 C 71 % 1011,2 hPa 0,0 mm 3,2 km/h (1 Bft) W 270 0 min 2 UV-I 229 W/m 14,5 km/h (3 Bft)
13.07.2010 10:20 21,4 C 71 % 1011,4 hPa 0,0 mm 1,6 km/h (1 Bft) W-SW 247 0 min 2 UV-I 206 W/m 9,7 km/h (2 Bft)
13.07.2010 10:30 21,5 C 70 % 1011,4 hPa 0,0 mm 1,6 km/h (1 Bft) W-SW 247 0 min 2 UV-I 232 W/m 6,4 km/h (2 Bft)
13.07.2010 10:40 21,8 C 69 % 1011,4 hPa 0,0 mm 3,2 km/h (1 Bft) W 270 10 min 5 UV-I 710 W/m 9,7 km/h (2 Bft)
13.07.2010 10:50 22,3 C 67 % 1011,3 hPa 0,0 mm 3,2 km/h (1 Bft) W 270 10 min 5 UV-I 772 W/m 11,3 km/h (2 Bft)
13.07.2010 11:00 23,0 C 61 % 1011,4 hPa 0,0 mm 4,8 km/h (1 Bft) W 270 10 min 5 UV-I 779 W/m 16,1 km/h (3 Bft)
13.07.2010 11:10 23,2 C 61 % 1011,4 hPa 0,0 mm 8,0 km/h (2 Bft) W-SW 247 10 min 6 UV-I 891 W/m 19,3 km/h (3 Bft)
13.07.2010 11:20 23,3 C 60 % 1011,4 hPa 0,0 mm 6,4 km/h (2 Bft) W 270 10 min 6 UV-I 870 W/m 16,1 km/h (3 Bft)
13.07.2010 11:30 24,1 C 58 % 1011,2 hPa 0,0 mm 4,8 km/h (1 Bft) W 270 10 min 6 UV-I 817 W/m 11,3 km/h (2 Bft)
13.07.2010 11:40 24,1 C 57 % 1011,0 hPa 0,0 mm 3,2 km/h (1 Bft) W-SW 247 10 min 6 UV-I 810 W/m 14,5 km/h (3 Bft)
13.07.2010 11:50 24,4 C 58 % 1010,8 hPa 0,0 mm 1,6 km/h (1 Bft) W-NW 292 10 min 6 UV-I 809 W/m 9,7 km/h (2 Bft)
13.07.2010 12:00 24,7 C 56 % 1010,9 hPa 0,0 mm 4,8 km/h (1 Bft) W 270 10 min 6 UV-I 840 W/m 14,5 km/h (3 Bft)
13.07.2010 12:10 24,4 C 57 % 1010,8 hPa 0,0 mm 3,2 km/h (1 Bft) W-SW 247 10 min 7 UV-I 838 W/m 14,5 km/h (3 Bft)
13.07.2010 12:20 24,9 C 53 % 1010,7 hPa 0,0 mm 1,6 km/h (1 Bft) W-SW 247 10 min 7 UV-I 849 W/m 9,7 km/h (2 Bft)
13.07.2010 12:30 24,9 C 52 % 1010,7 hPa 0,0 mm 3,2 km/h (1 Bft) W 270 10 min 7 UV-I 853 W/m 16,1 km/h (3 Bft)
13.07.2010 12:40 25,6 C 49 % 1010,7 hPa 0,0 mm 4,8 km/h (1 Bft) W-NW 292 10 min 7 UV-I 874 W/m 11,3 km/h (2 Bft)
13.07.2010 12:50 26,1 C 48 % 1010,7 hPa 0,0 mm 4,8 km/h (1 Bft) W 270 10 min 7 UV-I 875 W/m 14,5 km/h (3 Bft)
13.07.2010 13:00 25,9 C 47 % 1010,7 hPa 0,0 mm 3,2 km/h (1 Bft) W 270 10 min 7 UV-I 884 W/m 17,7 km/h (3 Bft)
13.07.2010 13:10 26,4 C 47 % 1010,7 hPa 0,0 mm 4,8 km/h (1 Bft) N-NO 22 10 min 7 UV-I 898 W/m 14,5 km/h (3 Bft)
13.07.2010 13:20 26,3 C 46 % 1010,7 hPa 0,0 mm 3,2 km/h (1 Bft) W 270 10 min 7 UV-I 898 W/m 11,3 km/h (2 Bft)
13.07.2010 13:30 26,5 C 45 % 1010,7 hPa 0,0 mm 4,8 km/h (1 Bft) W 270 10 min 7 UV-I 902 W/m 14,5 km/h (3 Bft)
13.07.2010 13:40 26,9 C 45 % 1010,7 hPa 0,0 mm 3,2 km/h (1 Bft) W 270 10 min 7 UV-I 909 W/m 11,3 km/h (2 Bft)
13.07.2010 13:50 27,7 C 44 % 1010,7 hPa 0,0 mm 3,2 km/h (1 Bft) W 270 10 min 8 UV-I 919 W/m 16,1 km/h (3 Bft)
13.07.2010 14:00 27,2 C 45 % 1010,7 hPa 0,0 mm 3,2 km/h (1 Bft) W 270 10 min 8 UV-I 942 W/m 9,7 km/h (2 Bft)
13.07.2010 14:10 27,3 C 43 % 1010,8 hPa 0,0 mm 3,2 km/h (1 Bft) W 270 10 min 7 UV-I 918 W/m 17,7 km/h (3 Bft)
13.07.2010 14:20 27,7 C 44 % 1010,6 hPa 0,0 mm 1,6 km/h (1 Bft) N 360 10 min 7 UV-I 893 W/m 6,4 km/h (2 Bft)
13.07.2010 14:30 27,6 C 41 % 1010,4 hPa 0,0 mm 4,8 km/h (1 Bft) W 270 10 min 7 UV-I 893 W/m 14,5 km/h (3 Bft)
13.07.2010 14:40 28,3 C 40 % 1010,4 hPa 0,0 mm 3,2 km/h (1 Bft) SW 225 10 min 7 UV-I 891 W/m 11,3 km/h (2 Bft)
13.07.2010 14:50 28,3 C 41 % 1010,2 hPa 0,0 mm 3,2 km/h (1 Bft) W 270 10 min 7 UV-I 881 W/m 16,1 km/h (3 Bft)
13.07.2010 15:00 28,5 C 43 % 1010,0 hPa 0,0 mm 4,8 km/h (1 Bft) W 270 10 min 7 UV-I 877 W/m 11,3 km/h (2 Bft)
13.07.2010 15:10 28,7 C 42 % 1010,0 hPa 0,0 mm 1,6 km/h (1 Bft) W-SW 247 10 min 7 UV-I 865 W/m 9,7 km/h (2 Bft)
13.07.2010 15:20 28,8 C 40 % 1009,9 hPa 0,0 mm 3,2 km/h (1 Bft) W 270 10 min 7 UV-I 849 W/m 9,7 km/h (2 Bft)
13.07.2010 15:30 28,6 C 41 % 1009,7 hPa 0,0 mm 3,2 km/h (1 Bft) N-NO 22 10 min 6 UV-I 838 W/m 12,9 km/h (3 Bft)
13.07.2010 15:40 28,8 C 39 % 1009,6 hPa 0,0 mm 1,6 km/h (1 Bft) N-NO 22 10 min 6 UV-I 821 W/m 8,0 km/h (2 Bft)
13.07.2010 15:50 28,5 C 40 % 1009,5 hPa 0,0 mm 3,2 km/h (1 Bft) W 270 10 min 6 UV-I 807 W/m 11,3 km/h (2 Bft)
13.07.2010 16:00 29,3 C 40 % 1009,3 hPa 0,0 mm 0,9 km/h (0 Bft) N-NW 333 10 min 5 UV-I 786 W/m 1,6 km/h (1 Bft)
13.07.2010 16:10 28,6 C 39 % 1009,3 hPa 0,0 mm 3,2 km/h (1 Bft) W-SW 247 10 min 5 UV-I 810 W/m 11,3 km/h (2 Bft)
13.07.2010 16:20 29,5 C 40 % 1009,2 hPa 0,0 mm 0,0 km/h (0 Bft) W-SW 247 10 min 5 UV-I 872 W/m 4,8 km/h (1 Bft)
13.07.2010 16:30 29,6 C 39 % 1009,2 hPa 0,0 mm 3,2 km/h (1 Bft) W-NW 292 10 min 5 UV-I 798 W/m 14,5 km/h (3 Bft)
13.07.2010 16:40 29,4 C 40 % 1009,2 hPa 0,0 mm 4,8 km/h (1 Bft) W-NW 292 10 min 5 UV-I 779 W/m 11,3 km/h (2 Bft)
13.07.2010 16:50 29,4 C 40 % 1009,1 hPa 0,0 mm 3,2 km/h (1 Bft) W-NW 292 10 min 4 UV-I 714 W/m 14,5 km/h (3 Bft)
13.07.2010 17:00 29,3 C 39 % 1009,2 hPa 0,0 mm 1,6 km/h (1 Bft) N 360 10 min 4 UV-I 729 W/m 8,0 km/h (2 Bft)
13.07.2010 17:10 29,4 C 39 % 1009,1 hPa 0,0 mm 1,6 km/h (1 Bft) N 360 10 min 4 UV-I 793 W/m 4,8 km/h (1 Bft)
13.07.2010 17:20 28,7 C 40 % 1009,0 hPa 0,0 mm 1,6 km/h (1 Bft) NO 45 0 min 2 UV-I 227 W/m 6,4 km/h (2 Bft)
13.07.2010 17:30 27,9 C 44 % 1008,9 hPa 0,0 mm 0,0 km/h (0 Bft) N-NW 337 0 min 2 UV-I 165 W/m 4,8 km/h (1 Bft)
13.07.2010 17:40 27,7 C 43 % 1009,0 hPa 0,0 mm 3,2 km/h (1 Bft) W 270 0 min 1 UV-I 109 W/m 8,0 km/h (2 Bft)
13.07.2010 17:50 27,6 C 44 % 1009,0 hPa 0,0 mm 0,0 km/h (0 Bft) N-NW 337 0 min 1 UV-I 91 W/m 4,8 km/h (1 Bft)
13.07.2010 18:00 27,7 C 44 % 1008,9 hPa 0,0 mm 0,0 km/h (0 Bft) N-NW 337 0 min 1 UV-I 153 W/m 3,2 km/h (1 Bft)
13.07.2010 18:10 27,5 C 42 % 1008,8 hPa 0,0 mm 3,2 km/h (1 Bft) NW 315 0 min 1 UV-I 156 W/m 4,8 km/h (1 Bft)
13.07.2010 18:20 27,7 C 43 % 1008,7 hPa 0,0 mm 1,6 km/h (1 Bft) W-NW 292 0 min 1 UV-I 251 W/m 4,8 km/h (1 Bft)
13.07.2010 18:30 28,2 C 42 % 1008,6 hPa 0,0 mm 1,6 km/h (1 Bft) W-NW 292 10 min 2 UV-I 568 W/m 6,4 km/h (2 Bft)
13.07.2010 18:40 28,7 C 40 % 1008,5 hPa 0,0 mm 3,2 km/h (1 Bft) W 270 10 min 2 UV-I 485 W/m 9,7 km/h (2 Bft)
13.07.2010 18:50 29,6 C 40 % 1008,4 hPa 0,0 mm 0,0 km/h (0 Bft) W 270 10 min 2 UV-I 390 W/m 4,8 km/h (1 Bft)
13.07.2010 19:00 29,3 C 39 % 1008,4 hPa 0,0 mm 1,6 km/h (1 Bft) W 270 10 min 1 UV-I 359 W/m 8,0 km/h (2 Bft)
13.07.2010 19:10 29,3 C 37 % 1008,3 hPa 0,0 mm 1,6 km/h (1 Bft) W-SW 247 10 min 1 UV-I 329 W/m 6,4 km/h (2 Bft)
13.07.2010 19:20 29,2 C 40 % 1008,3 hPa 0,0 mm 1,6 km/h (1 Bft) W-SW 247 10 min 1 UV-I 309 W/m 6,4 km/h (2 Bft)
13.07.2010 19:30 28,9 C 39 % 1008,3 hPa 0,0 mm 3,2 km/h (1 Bft) W-SW 247 10 min 1 UV-I 288 W/m 9,7 km/h (2 Bft)
13.07.2010 19:40 28,7 C 41 % 1008,2 hPa 0,0 mm 3,2 km/h (1 Bft) W-SW 247 10 min 1 UV-I 264 W/m 8,0 km/h (2 Bft)
13.07.2010 19:50 28,8 C 40 % 1008,2 hPa 0,0 mm 1,6 km/h (1 Bft) W 270 10 min 1 UV-I 257 W/m 4,8 km/h (1 Bft)
13.07.2010 20:00 28,4 C 41 % 1008,3 hPa 0,0 mm 3,2 km/h (1 Bft) W-SW 247 10 min 1 UV-I 202 W/m 9,7 km/h (2 Bft)
13.07.2010 20:10 27,9 C 44 % 1008,5 hPa 0,0 mm 3,2 km/h (1 Bft) W 270 10 min 1 UV-I 171 W/m 9,7 km/h (2 Bft)
13.07.2010 20:20 27,3 C 46 % 1008,5 hPa 0,0 mm 1,6 km/h (1 Bft) W 270 10 min 1 UV-I 146 W/m 6,4 km/h (2 Bft)
13.07.2010 20:30 27,0 C 47 % 1008,4 hPa 0,0 mm 0,0 km/h (0 Bft) W-NW 292 0 min 0 UV-I 56 W/m 3,2 km/h (1 Bft)
13.07.2010 20:40 26,7 C 48 % 1008,5 hPa 0,0 mm 0,0 km/h (0 Bft) W-NW 292 0 min 0 UV-I 51 W/m 3,2 km/h (1 Bft)
13.07.2010 20:50 26,7 C 48 % 1008,5 hPa 0,0 mm 0,0 km/h (0 Bft) W-NW 292 0 min 0 UV-I 46 W/m 4,8 km/h (1 Bft)
13.07.2010 21:00 26,2 C 52 % 1008,5 hPa 0,0 mm 0,0 km/h (0 Bft) W-NW 292 0 min 0 UV-I 32 W/m 1,6 km/h (1 Bft)
13.07.2010 21:10 25,8 C 56 % 1008,6 hPa 0,0 mm 0,0 km/h (0 Bft) W-NW 292 0 min 0 UV-I 26 W/m 1,6 km/h (1 Bft)
13.07.2010 21:20 25,4 C 56 % 1008,6 hPa 0,0 mm 0,0 km/h (0 Bft) W-NW 292 10 min 0 UV-I 16 W/m 1,6 km/h (1 Bft)
13.07.2010 21:30 24,9 C 58 % 1008,7 hPa 0,0 mm 0,0 km/h (0 Bft) N 0 0 min 0 UV-I 9 W/m 0,0 km/h (0 Bft)
13.07.2010 21:40 24,4 C 58 % 1008,7 hPa 0,0 mm 0,0 km/h (0 Bft) W-NW 292 0 min 0 UV-I 0 W/m 1,6 km/h (1 Bft)
13.07.2010 21:50 24,3 C 58 % 1008,7 hPa 0,0 mm 0,0 km/h (0 Bft) N 0 0 min 0 UV-I 0 W/m 0,0 km/h (0 Bft)
13.07.2010 22:00 24,3 C 58 % 1008,8 hPa 0,0 mm 0,0 km/h (0 Bft) N 0 0 min 0 UV-I 0 W/m 0,0 km/h (0 Bft)
13.07.2010 22:10 24,1 C 59 % 1008,8 hPa 0,0 mm 0,0 km/h (0 Bft) N 0 0 min 0 UV-I 0 W/m 0,0 km/h (0 Bft)
13.07.2010 22:20 23,7 C 60 % 1008,7 hPa 0,0 mm 0,0 km/h (0 Bft) N 0 0 min 0 UV-I 0 W/m 0,0 km/h (0 Bft)
13.07.2010 22:30 23,3 C 59 % 1008,9 hPa 0,0 mm 0,0 km/h (0 Bft) W-NW 292 0 min 0 UV-I 0 W/m 1,6 km/h (1 Bft)
13.07.2010 22:40 23,1 C 61 % 1008,8 hPa 0,0 mm 0,0 km/h (0 Bft) W-NW 292 0 min 0 UV-I 0 W/m 1,6 km/h (1 Bft)
13.07.2010 22:50 22,7 C 62 % 1008,7 hPa 0,0 mm 0,0 km/h (0 Bft) W-NW 292 0 min 0 UV-I 0 W/m 1,6 km/h (1 Bft)
13.07.2010 23:00 22,6 C 64 % 1008,8 hPa 0,0 mm 0,0 km/h (0 Bft) W-NW 292 0 min 0 UV-I 0 W/m 4,8 km/h (1 Bft)
13.07.2010 23:10 22,7 C 63 % 1008,7 hPa 0,0 mm 1,6 km/h (1 Bft) W-NW 292 0 min 0 UV-I 0 W/m 4,8 km/h (1 Bft)
13.07.2010 23:20 22,6 C 64 % 1008,7 hPa 0,0 mm 0,3 km/h (0 Bft) W-NW 286 0 min 0 UV-I 0 W/m 3,2 km/h (1 Bft)
13.07.2010 23:30 22,3 C 64 % 1008,7 hPa 0,0 mm 0,0 km/h (0 Bft) W-NW 292 0 min 0 UV-I 0 W/m 3,2 km/h (1 Bft)
13.07.2010 23:40 22,2 C 65 % 1008,6 hPa 0,0 mm 0,0 km/h (0 Bft) W-NW 292 0 min 0 UV-I 0 W/m 3,2 km/h (1 Bft)
13.07.2010 23:50 22,2 C 65 % 1008,6 hPa 0,0 mm 0,0 km/h (0 Bft) W-NW 292 0 min 0 UV-I 0 W/m 3,2 km/h (1 Bft)
_ Min-Zeit 06:40 19:10 19:40 - 00:00 - - - - - 02:50
Minimum _ 18,9 C 37 % 1008,2 hPa - 0,0 km/h (0 Bft) - - - - - 0,0 km/h (0 Bft)
_ Max-Zeit 16:30 05:10 10:20 00:00 11:10 - - 07:10 13:50 14:00 11:10
Maximum _ 30,0 C 80 % 1011,4 hPa 0,0 mm 8,0 km/h
W-SW (2 Bft)
- - 10 min 8 UV-I 942 W/m 19,3 km/h
W-SW (3 Bft)
Durchschnitt _ 23,9 C 60 % 1010,0 hPa #0,0 mm 1,7 km/h (1 Bft) W - #11:30 h 4 UV-I 476 W/m 7,2 km/h (2 Bft)